createdAt,value
2019-03-17T00:00:38.694Z,95.70
2019-03-17T00:03:08.271Z,95.40
2019-03-17T00:05:38.089Z,95.40
2019-03-17T00:08:07.622Z,95.40
2019-03-17T00:10:37.181Z,95.00
2019-03-17T00:13:06.710Z,94.80
2019-03-17T00:15:36.254Z,94.80
2019-03-17T00:18:05.855Z,95.00
2019-03-17T00:20:35.437Z,95.30
2019-03-17T00:23:04.974Z,95.60
2019-03-17T00:25:34.530Z,95.50
2019-03-17T00:28:05.173Z,95.10
2019-03-17T00:30:34.735Z,94.60
2019-03-17T00:33:04.290Z,94.80
2019-03-17T00:35:33.835Z,94.90
2019-03-17T00:38:03.362Z,94.70
2019-03-17T00:40:32.891Z,94.90
2019-03-17T00:43:02.468Z,94.80
2019-03-17T00:45:31.994Z,95.30
2019-03-17T00:48:01.940Z,95.70
2019-03-17T00:50:31.472Z,95.70
2019-03-17T00:53:01.009Z,95.70
2019-03-17T00:55:30.615Z,95.50
2019-03-17T00:58:00.167Z,95.40
2019-03-17T01:00:29.697Z,95.50
2019-03-17T01:02:59.235Z,95.90
2019-03-17T01:05:31.088Z,96.00
2019-03-17T01:08:00.268Z,95.90
2019-03-17T01:10:30.156Z,95.90
2019-03-17T01:12:59.811Z,95.90
2019-03-17T01:15:29.361Z,95.90
2019-03-17T01:17:58.896Z,95.90
2019-03-17T01:20:29.255Z,95.80
2019-03-17T01:22:58.792Z,95.50
2019-03-17T01:25:28.343Z,95.30
2019-03-17T01:27:58.891Z,95.20
2019-03-17T01:30:28.611Z,95.40
2019-03-17T01:32:58.175Z,95.10
2019-03-17T01:35:27.724Z,95.20
2019-03-17T01:37:57.269Z,95.10
2019-03-17T01:40:26.810Z,95.00
2019-03-17T01:42:56.346Z,95.00
2019-03-17T01:45:25.938Z,94.90
2019-03-17T01:47:55.462Z,95.10
2019-03-17T01:50:25.014Z,95.00
2019-03-17T01:52:54.597Z,94.90
2019-03-17T01:55:24.146Z,95.00
2019-03-17T01:57:53.737Z,94.90
2019-03-17T02:00:23.275Z,94.80
2019-03-17T02:02:52.828Z,94.70
2019-03-17T02:05:23.197Z,94.90
2019-03-17T02:07:52.745Z,95.40
2019-03-17T02:10:22.543Z,95.60
2019-03-17T02:12:52.079Z,95.60
2019-03-17T02:15:21.626Z,96.10
2019-03-17T02:17:51.184Z,96.60
2019-03-17T02:20:20.744Z,95.50
2019-03-17T02:22:50.314Z,96.40
2019-03-17T02:25:19.849Z,97.40
2019-03-17T02:27:49.429Z,97.70
2019-03-17T02:30:18.971Z,97.90
2019-03-17T02:32:48.521Z,97.80
2019-03-17T02:35:18.066Z,97.20
2019-03-17T02:37:47.607Z,96.70
2019-03-17T02:40:17.156Z,96.60
2019-03-17T02:42:46.785Z,96.80
2019-03-17T02:45:16.323Z,97.00
2019-03-17T02:47:45.860Z,97.20
2019-03-17T02:50:15.406Z,97.30
2019-03-17T02:52:44.942Z,97.30
2019-03-17T02:55:14.592Z,97.20
2019-03-17T02:57:44.137Z,96.70
2019-03-17T03:00:13.795Z,96.60
2019-03-17T03:02:43.335Z,96.20
2019-03-17T03:05:13.185Z,96.20
2019-03-17T03:07:43.110Z,96.40
2019-03-17T03:10:12.647Z,96.50
2019-03-17T03:12:42.209Z,96.80
2019-03-17T03:15:11.749Z,96.90
2019-03-17T03:17:41.288Z,96.30
2019-03-17T03:20:10.844Z,96.20
2019-03-17T03:22:40.384Z,96.10
2019-03-17T03:25:10.425Z,95.90
2019-03-17T03:27:39.959Z,95.90
2019-03-17T03:30:12.168Z,95.70
2019-03-17T03:32:41.799Z,95.80
2019-03-17T03:35:11.381Z,95.60
2019-03-17T03:37:40.933Z,95.50
2019-03-17T03:40:11.674Z,95.90
2019-03-17T03:42:42.373Z,95.50
2019-03-17T03:45:14.999Z,95.40
2019-03-17T03:47:44.557Z,95.40
2019-03-17T03:50:14.103Z,95.30
2019-03-17T03:52:43.701Z,95.00
2019-03-17T03:55:13.266Z,94.90
2019-03-17T03:57:42.816Z,94.70
2019-03-17T04:00:15.860Z,94.70
2019-03-17T04:02:45.392Z,94.70
2019-03-17T04:05:14.950Z,95.10
2019-03-17T04:07:45.404Z,94.90
2019-03-17T04:10:15.050Z,95.20
2019-03-17T04:12:44.675Z,94.90
2019-03-17T04:15:14.218Z,94.80
2019-03-17T04:17:44.090Z,94.60
2019-03-17T04:20:14.013Z,94.90
2019-03-17T04:22:43.531Z,94.90
2019-03-17T04:25:17.479Z,95.50
2019-03-17T04:27:47.032Z,96.10
2019-03-17T04:30:18.423Z,96.00
2019-03-17T04:32:48.802Z,96.00
2019-03-17T04:35:18.351Z,95.20
2019-03-17T04:37:47.897Z,95.60
2019-03-17T04:40:17.433Z,95.40
2019-03-17T04:42:46.983Z,96.90
2019-03-17T04:45:16.447Z,97.20
2019-03-17T04:47:45.987Z,97.30
2019-03-17T04:50:15.541Z,96.90
2019-03-17T04:52:45.075Z,95.30
2019-03-17T04:55:14.647Z,96.40
2019-03-17T04:57:44.190Z,95.50
2019-03-17T05:00:13.747Z,94.70
2019-03-17T05:02:43.305Z,95.90
2019-03-17T05:05:13.846Z,95.80
2019-03-17T05:07:43.841Z,95.90
2019-03-17T05:10:13.400Z,95.70
2019-03-17T05:12:42.927Z,95.80
2019-03-17T05:15:12.497Z,96.70
2019-03-17T05:17:42.045Z,96.90
2019-03-17T05:20:11.590Z,96.30
2019-03-17T05:22:41.135Z,93.90
2019-03-17T05:25:10.667Z,92.90
2019-03-17T05:27:40.334Z,91.20
2019-03-17T05:30:11.923Z,89.40
2019-03-17T05:32:41.429Z,88.10
2019-03-17T05:35:11.083Z,85.40
2019-03-17T05:37:41.047Z,83.80
2019-03-17T05:40:10.585Z,85.80
2019-03-17T05:42:41.297Z,80.60
2019-03-17T05:45:10.897Z,76.60
2019-03-17T05:47:40.455Z,73.70
2019-03-17T05:50:10.704Z,71.70
2019-03-17T05:52:40.242Z,69.90
2019-03-17T05:55:10.203Z,71.20
2019-03-17T05:57:39.722Z,71.30
2019-03-17T06:00:12.423Z,71.30
2019-03-17T06:02:42.110Z,66.40
2019-03-17T06:05:11.679Z,66.90
2019-03-17T06:07:41.210Z,72.00
2019-03-17T06:10:10.666Z,77.70
2019-03-17T06:12:40.366Z,79.20
2019-03-17T06:15:11.426Z,80.00
2019-03-17T06:17:40.945Z,80.30
2019-03-17T06:20:11.619Z,79.90
2019-03-17T06:22:42.219Z,79.50
2019-03-17T06:25:11.783Z,77.70
2019-03-17T06:27:41.453Z,76.90
2019-03-17T06:30:12.819Z,79.70
2019-03-17T06:32:42.410Z,78.60
2019-03-17T06:35:11.873Z,79.10
2019-03-17T06:37:41.732Z,77.90
2019-03-17T06:40:12.548Z,78.30
2019-03-17T06:42:42.078Z,77.30
2019-03-17T06:45:11.629Z,77.10
2019-03-17T06:47:41.176Z,76.10
2019-03-17T06:50:15.272Z,73.20
2019-03-17T06:52:44.824Z,73.60
2019-03-17T06:55:18.373Z,74.20
2019-03-17T06:57:47.886Z,74.30
2019-03-17T07:00:17.834Z,75.20
2019-03-17T07:02:47.388Z,73.00
2019-03-17T07:05:16.926Z,74.00
2019-03-17T07:07:46.871Z,73.10
2019-03-17T07:10:16.507Z,73.70
2019-03-17T07:12:46.034Z,72.30
2019-03-17T07:15:15.582Z,72.00
2019-03-17T07:17:45.123Z,72.30
2019-03-17T07:20:14.873Z,71.00
2019-03-17T07:22:44.688Z,71.50
2019-03-17T07:25:14.335Z,72.10
2019-03-17T07:27:44.396Z,70.90
2019-03-17T07:30:14.744Z,71.30
2019-03-17T07:32:44.686Z,71.50
2019-03-17T07:35:14.220Z,68.80
2019-03-17T07:37:56.275Z,67.40
2019-03-17T07:40:16.031Z,66.30
2019-03-17T07:42:45.604Z,66.50
2019-03-17T07:45:15.491Z,66.70
2019-03-17T07:47:45.375Z,66.20
2019-03-17T07:50:15.752Z,65.70
2019-03-17T07:52:45.315Z,65.20
2019-03-17T07:55:14.866Z,64.10
2019-03-17T07:57:44.397Z,62.70
2019-03-17T08:00:14.539Z,64.10
2019-03-17T08:02:44.066Z,62.70
2019-03-17T08:05:13.588Z,62.60
2019-03-17T08:07:43.395Z,62.60
2019-03-17T08:10:15.184Z,62.70
2019-03-17T08:12:44.726Z,59.80
2019-03-17T08:15:14.820Z,58.80
2019-03-17T08:17:44.326Z,59.20
2019-03-17T08:20:14.284Z,58.60
2019-03-17T08:22:43.822Z,59.20
2019-03-17T08:25:13.351Z,58.00
2019-03-17T08:27:43.117Z,56.80
2019-03-17T08:30:14.910Z,57.40
2019-03-17T08:32:44.448Z,56.70
2019-03-17T08:35:14.014Z,55.40
2019-03-17T08:37:43.544Z,56.50
2019-03-17T08:40:15.483Z,56.00
2019-03-17T08:42:45.014Z,55.30
2019-03-17T08:45:15.158Z,54.00
2019-03-17T08:47:56.508Z,55.10
2019-03-17T08:50:15.874Z,53.80
2019-03-17T08:52:45.430Z,52.30
2019-03-17T08:55:14.957Z,52.40
2019-03-17T08:57:44.533Z,51.70
2019-03-17T09:00:18.191Z,51.30
2019-03-17T09:02:47.745Z,50.30
2019-03-17T09:05:17.277Z,50.00
2019-03-17T09:07:46.836Z,50.10
2019-03-17T09:10:16.674Z,46.60
2019-03-17T09:12:46.239Z,46.10
2019-03-17T09:15:15.781Z,43.70
2019-03-17T09:17:45.686Z,40.90
2019-03-17T09:20:15.226Z,39.60
2019-03-17T09:22:45.107Z,36.20
2019-03-17T09:25:14.669Z,36.20
2019-03-17T09:27:44.221Z,40.30
2019-03-17T09:30:18.590Z,37.00
2019-03-17T09:32:48.153Z,35.80
2019-03-17T09:35:17.712Z,36.10
2019-03-17T09:37:47.249Z,37.20
2019-03-17T09:40:17.690Z,35.60
2019-03-17T09:42:47.250Z,36.20
2019-03-17T09:45:16.785Z,36.10
2019-03-17T09:47:46.365Z,36.20
2019-03-17T09:50:18.067Z,34.20
2019-03-17T09:52:47.807Z,32.90
2019-03-17T09:55:17.668Z,34.10
2019-03-17T09:57:47.204Z,34.50
2019-03-17T10:00:18.854Z,33.00
2019-03-17T10:02:48.392Z,33.00
2019-03-17T10:05:17.944Z,31.40
2019-03-17T10:07:47.534Z,29.40
2019-03-17T10:10:18.390Z,29.00
2019-03-17T10:12:49.118Z,29.70
2019-03-17T10:15:19.556Z,31.70
2019-03-17T10:17:49.153Z,28.80
2019-03-17T10:20:20.477Z,29.30
2019-03-17T10:22:50.069Z,31.30
2019-03-17T10:25:19.625Z,29.80
2019-03-17T10:27:49.166Z,30.20
2019-03-17T10:30:19.616Z,27.80
2019-03-17T10:32:49.455Z,27.20
2019-03-17T10:35:19.062Z,26.40
2019-03-17T10:37:48.990Z,26.00
2019-03-17T10:40:20.708Z,26.30
2019-03-17T10:42:50.343Z,26.40
2019-03-17T10:45:20.252Z,24.50
2019-03-17T10:47:50.174Z,27.10
2019-03-17T10:50:20.646Z,26.10
2019-03-17T10:52:50.153Z,26.80
2019-03-17T10:55:19.678Z,27.00
2019-03-17T10:57:49.178Z,28.40
2019-03-17T11:00:22.435Z,27.60
2019-03-17T11:02:52.007Z,26.80
2019-03-17T11:05:21.555Z,26.70
2019-03-17T11:07:51.105Z,27.40
2019-03-17T11:10:20.821Z,27.20
2019-03-17T11:12:50.458Z,26.70
2019-03-17T11:15:20.957Z,26.10
2019-03-17T11:17:50.489Z,26.30
2019-03-17T11:20:20.027Z,24.50
2019-03-17T11:22:50.608Z,24.90
2019-03-17T11:25:20.542Z,26.30
2019-03-17T11:27:50.133Z,27.20
2019-03-17T11:30:20.775Z,26.00
2019-03-17T11:32:50.341Z,25.70
2019-03-17T11:35:19.878Z,26.30
2019-03-17T11:37:49.428Z,25.80
2019-03-17T11:40:20.003Z,26.40
2019-03-17T11:42:50.372Z,27.20
2019-03-17T11:45:20.343Z,27.70
2019-03-17T11:47:50.159Z,27.20
2019-03-17T11:50:21.991Z,25.80
2019-03-17T11:52:51.976Z,25.60
2019-03-17T11:55:21.857Z,23.80
2019-03-17T11:57:51.387Z,21.70
2019-03-17T12:00:22.164Z,21.10
2019-03-17T12:02:51.687Z,20.50
2019-03-17T12:05:21.248Z,21.00
2019-03-17T12:07:50.794Z,20.70
2019-03-17T12:10:23.873Z,19.20
2019-03-17T12:12:53.467Z,19.60
2019-03-17T12:15:24.715Z,19.50
2019-03-17T12:17:54.413Z,20.30
2019-03-17T12:20:23.965Z,21.30
2019-03-17T12:22:53.500Z,21.10
2019-03-17T12:25:23.078Z,21.40
2019-03-17T12:27:52.601Z,20.60
2019-03-17T12:30:23.471Z,20.60
2019-03-17T12:32:53.301Z,21.40
2019-03-17T12:35:22.842Z,20.80
2019-03-17T12:37:52.393Z,20.70
2019-03-17T12:40:22.957Z,21.20
2019-03-17T12:42:52.507Z,20.30
2019-03-17T12:45:22.163Z,21.00
2019-03-17T12:47:51.704Z,20.10
2019-03-17T12:50:25.550Z,20.60
2019-03-17T12:52:55.071Z,21.00
2019-03-17T12:55:24.982Z,23.00
2019-03-17T12:57:54.506Z,23.60
2019-03-17T13:00:25.681Z,23.90
2019-03-17T13:02:55.230Z,23.30
2019-03-17T13:05:24.797Z,23.40
2019-03-17T13:07:54.375Z,23.00
2019-03-17T13:10:23.893Z,23.70
2019-03-17T13:12:54.391Z,23.00
2019-03-17T13:15:23.960Z,24.10
2019-03-17T13:17:54.423Z,23.50
2019-03-17T13:20:24.002Z,23.70
2019-03-17T13:22:53.534Z,20.00
2019-03-17T13:25:35.385Z,20.60
2019-03-17T13:28:05.276Z,18.10
2019-03-17T13:30:34.823Z,19.70
2019-03-17T13:33:05.362Z,22.50
2019-03-17T13:35:34.890Z,22.20
2019-03-17T13:38:04.455Z,22.70
2019-03-17T13:40:34.004Z,20.70
2019-03-17T13:43:03.539Z,19.90
2019-03-17T13:45:33.325Z,20.80
2019-03-17T13:48:02.850Z,20.60
2019-03-17T13:50:32.396Z,20.90
2019-03-17T13:53:01.925Z,21.10
2019-03-17T13:55:31.639Z,20.50
2019-03-17T13:58:09.005Z,20.00
2019-03-17T14:00:38.542Z,21.00
2019-03-17T14:03:09.523Z,21.10
2019-03-17T14:05:39.137Z,20.80
2019-03-17T14:08:08.660Z,21.10
2019-03-17T14:10:41.405Z,20.90
2019-03-17T14:13:09.373Z,21.30
2019-03-17T14:15:38.913Z,20.90
2019-03-17T14:18:08.779Z,21.00
2019-03-17T14:20:38.339Z,20.60
2019-03-17T14:23:07.871Z,20.50
2019-03-17T14:25:38.409Z,20.40
2019-03-17T14:28:08.226Z,20.30
2019-03-17T14:30:37.743Z,20.30
2019-03-17T14:33:07.320Z,20.40
2019-03-17T14:35:37.210Z,20.80
2019-03-17T14:38:06.735Z,20.90
2019-03-17T14:40:36.589Z,21.00
2019-03-17T14:43:06.106Z,21.30
2019-03-17T14:45:35.638Z,21.30
2019-03-17T14:48:05.898Z,20.90
2019-03-17T14:50:35.432Z,21.10
2019-03-17T14:53:05.331Z,21.00
2019-03-17T14:55:34.898Z,20.50
2019-03-17T14:58:04.415Z,21.00
2019-03-17T15:00:34.102Z,21.70
2019-03-17T15:03:03.628Z,22.00
2019-03-17T15:05:33.474Z,21.70
2019-03-17T15:08:07.320Z,22.20
2019-03-17T15:10:40.218Z,22.80
2019-03-17T15:13:10.610Z,21.80
2019-03-17T15:15:40.169Z,22.30
2019-03-17T15:18:09.877Z,22.90
2019-03-17T15:20:39.421Z,22.80
2019-03-17T15:23:09.022Z,23.50
2019-03-17T15:25:38.570Z,22.40
2019-03-17T15:28:08.438Z,23.00
2019-03-17T15:30:37.987Z,23.00
2019-03-17T15:33:07.516Z,23.40
2019-03-17T15:35:37.077Z,23.30
2019-03-17T15:38:06.622Z,23.70
2019-03-17T15:40:36.569Z,23.70
2019-03-17T15:43:06.198Z,24.10
2019-03-17T15:45:35.759Z,24.40
2019-03-17T15:48:05.592Z,23.70
2019-03-17T15:50:35.119Z,23.70
2019-03-17T15:53:05.710Z,23.40
2019-03-17T15:55:35.235Z,24.00
2019-03-17T15:58:04.788Z,23.90
2019-03-17T16:00:34.322Z,23.80
2019-03-17T16:03:04.956Z,24.30
2019-03-17T16:05:34.535Z,24.30
2019-03-17T16:08:04.062Z,25.60
2019-03-17T16:10:33.631Z,25.10
2019-03-17T16:13:03.184Z,25.20
2019-03-17T16:15:32.715Z,25.70
2019-03-17T16:18:02.258Z,25.50
2019-03-17T16:20:31.987Z,25.60
2019-03-17T16:23:01.560Z,25.50
2019-03-17T16:25:38.437Z,26.30
2019-03-17T16:28:08.157Z,26.00
2019-03-17T16:30:37.716Z,26.30
2019-03-17T16:33:07.294Z,26.60
2019-03-17T16:35:36.815Z,27.30
2019-03-17T16:38:06.359Z,27.90
2019-03-17T16:40:36.231Z,27.30
2019-03-17T16:43:25.264Z,27.20
2019-03-17T16:45:54.810Z,27.50
2019-03-17T16:48:24.642Z,27.70
2019-03-17T16:50:55.303Z,27.20
2019-03-17T16:53:24.856Z,28.00
2019-03-17T16:55:55.726Z,28.80
2019-03-17T16:58:25.276Z,28.70
2019-03-17T17:00:54.920Z,29.80
2019-03-17T17:03:24.901Z,29.80
2019-03-17T17:05:54.409Z,29.60
2019-03-17T17:08:24.060Z,29.60
2019-03-17T17:10:53.593Z,30.00
2019-03-17T17:13:24.279Z,30.60
2019-03-17T17:15:54.217Z,33.20
2019-03-17T17:18:23.755Z,35.20
2019-03-17T17:20:55.910Z,37.70
2019-03-17T17:23:25.790Z,38.30
2019-03-17T17:25:55.354Z,40.30
2019-03-17T17:28:24.931Z,40.60
2019-03-17T17:30:54.661Z,40.60
2019-03-17T17:33:24.203Z,41.30
2019-03-17T17:35:54.093Z,42.40
2019-03-17T17:38:23.959Z,43.00
2019-03-17T17:40:54.205Z,44.40
2019-03-17T17:43:23.832Z,45.20
2019-03-17T17:45:53.433Z,46.80
2019-03-17T17:48:22.987Z,47.90
2019-03-17T17:50:52.842Z,48.10
2019-03-17T17:53:22.428Z,49.20
2019-03-17T17:55:51.913Z,48.90
2019-03-17T17:58:21.507Z,48.80
2019-03-17T18:00:51.331Z,48.90
2019-03-17T18:03:20.881Z,49.80
2019-03-17T18:05:50.446Z,49.90
2019-03-17T18:08:19.988Z,51.40
2019-03-17T18:10:49.574Z,51.70
2019-03-17T18:13:19.094Z,52.30
2019-03-17T18:15:48.645Z,51.90
2019-03-17T18:18:18.241Z,51.80
2019-03-17T18:20:47.765Z,52.60
2019-03-17T18:23:18.544Z,52.30
2019-03-17T18:25:50.085Z,51.70
2019-03-17T18:28:19.993Z,52.40
2019-03-17T18:30:49.531Z,51.10
2019-03-17T18:33:19.123Z,52.40
2019-03-17T18:35:48.711Z,52.60
2019-03-17T18:38:18.396Z,53.90
2019-03-17T18:40:47.927Z,52.00
2019-03-17T18:43:17.531Z,50.10
2019-03-17T18:45:48.076Z,49.70
2019-03-17T18:48:17.639Z,48.50
2019-03-17T18:50:47.176Z,49.50
2019-03-17T18:53:16.719Z,49.80
2019-03-17T18:55:46.255Z,49.30
2019-03-17T18:58:16.103Z,49.40
2019-03-17T19:00:47.085Z,50.10
2019-03-17T19:03:16.601Z,44.20
2019-03-17T19:05:46.189Z,39.50
2019-03-17T19:08:15.751Z,38.20
2019-03-17T19:10:45.321Z,37.70
2019-03-17T19:13:15.181Z,36.70
2019-03-17T19:15:45.673Z,36.60
2019-03-17T19:18:15.476Z,35.50
2019-03-17T19:20:45.010Z,33.70
2019-03-17T19:23:14.556Z,32.70
2019-03-17T19:25:44.245Z,33.00
2019-03-17T19:28:13.759Z,32.70
2019-03-17T19:30:43.342Z,32.70
2019-03-17T19:33:13.279Z,32.70
2019-03-17T19:35:42.938Z,33.30
2019-03-17T19:38:12.499Z,34.10
2019-03-17T19:40:42.402Z,33.90
2019-03-17T19:43:11.978Z,34.80
2019-03-17T19:45:41.647Z,35.30
2019-03-17T19:48:11.214Z,35.40
2019-03-17T19:50:40.779Z,35.60
2019-03-17T19:53:10.325Z,35.60
2019-03-17T19:55:39.963Z,36.10
2019-03-17T19:58:09.831Z,36.80
2019-03-17T20:00:39.758Z,38.90
2019-03-17T20:03:09.321Z,39.00
2019-03-17T20:05:38.843Z,41.20
2019-03-17T20:08:08.538Z,43.00
2019-03-17T20:10:38.084Z,42.80
2019-03-17T20:13:11.936Z,43.80
2019-03-17T20:15:38.825Z,45.60
2019-03-17T20:18:08.384Z,47.00
2019-03-17T20:20:38.239Z,47.80
2019-03-17T20:23:08.170Z,48.00
2019-03-17T20:25:37.731Z,49.70
2019-03-17T20:28:07.313Z,48.80
2019-03-17T20:30:36.856Z,50.30
2019-03-17T20:33:06.570Z,52.40
2019-03-17T20:35:36.102Z,54.20
2019-03-17T20:38:06.004Z,55.10
2019-03-17T20:40:41.372Z,56.10
2019-03-17T20:43:24.076Z,57.40
2019-03-17T20:45:43.307Z,56.60
2019-03-17T20:48:13.194Z,56.80
2019-03-17T20:50:42.775Z,57.20
2019-03-17T20:53:12.339Z,57.50
2019-03-17T20:55:41.867Z,58.10
2019-03-17T20:58:11.457Z,57.70
2019-03-17T21:00:54.617Z,59.00
2019-03-17T21:03:24.166Z,59.70
2019-03-17T21:05:53.713Z,60.00
2019-03-17T21:08:23.317Z,59.70
2019-03-17T21:10:52.863Z,59.70
2019-03-17T21:13:22.423Z,60.60
2019-03-17T21:15:51.980Z,60.40
2019-03-17T21:18:22.328Z,59.60
2019-03-17T21:20:51.892Z,61.20
2019-03-17T21:23:21.447Z,60.60
2019-03-17T21:25:50.967Z,60.70
2019-03-17T21:28:20.509Z,61.80
2019-03-17T21:30:50.381Z,60.70
2019-03-17T21:33:20.296Z,62.60
2019-03-17T21:35:49.849Z,61.90
2019-03-17T21:38:19.394Z,63.10
2019-03-17T21:41:06.203Z,63.00
2019-03-17T21:43:20.619Z,63.30
2019-03-17T21:45:50.231Z,62.50
2019-03-17T21:48:19.755Z,63.40
2019-03-17T21:50:49.303Z,61.60
2019-03-17T21:53:18.869Z,63.30
2019-03-17T21:55:48.821Z,63.50
2019-03-17T21:58:18.478Z,64.30
2019-03-17T22:00:48.022Z,65.20
2019-03-17T22:03:20.773Z,66.50
2019-03-17T22:05:50.330Z,66.00
2019-03-17T22:08:19.862Z,67.00
2019-03-17T22:10:50.411Z,63.10
2019-03-17T22:13:19.955Z,63.30
2019-03-17T22:15:49.886Z,64.10
2019-03-17T22:18:19.401Z,63.70
2019-03-17T22:20:48.947Z,65.10
2019-03-17T22:23:18.497Z,66.50
2019-03-17T22:25:48.054Z,68.30
2019-03-17T22:28:19.631Z,67.40
2019-03-17T22:30:48.775Z,66.00
2019-03-17T22:33:18.391Z,66.60
2019-03-17T22:35:47.914Z,64.00
2019-03-17T22:38:17.459Z,66.70
2019-03-17T22:40:48.092Z,68.40
2019-03-17T22:43:17.638Z,68.20
2019-03-17T22:45:47.224Z,67.50
2019-03-17T22:48:16.756Z,68.70
2019-03-17T22:50:46.328Z,69.40
2019-03-17T22:53:15.870Z,66.80
2019-03-17T22:55:45.402Z,59.50
2019-03-17T22:58:15.022Z,67.60
2019-03-17T23:00:44.961Z,62.50
2019-03-17T23:03:15.519Z,57.90
2019-03-17T23:05:45.056Z,67.40
2019-03-17T23:08:14.590Z,69.10
2019-03-17T23:10:44.185Z,58.60
2019-03-17T23:13:13.711Z,58.90
2019-03-17T23:15:43.275Z,59.80
2019-03-17T23:18:12.827Z,61.50
2019-03-17T23:20:42.364Z,62.40
2019-03-17T23:23:11.907Z,63.40
2019-03-17T23:25:41.441Z,66.20
2019-03-17T23:28:11.054Z,68.10
2019-03-17T23:30:40.553Z,69.50
2019-03-17T23:33:10.194Z,71.00
2019-03-17T23:35:40.033Z,72.60
2019-03-17T23:38:09.581Z,72.90
2019-03-17T23:40:39.151Z,74.00
2019-03-17T23:43:08.688Z,74.50
2019-03-17T23:45:38.312Z,74.80
2019-03-17T23:48:07.855Z,75.30
2019-03-17T23:50:37.410Z,74.90
2019-03-17T23:53:07.018Z,74.90
2019-03-17T23:55:36.554Z,74.70
2019-03-17T23:58:06.420Z,75.30
